Terminal Aerodrome Forecast
Issued by NWS

Home | Current Version | Previous Version | Text Only | Print | Product List | Glossary On
Versions: 1 2 3 4 5 6 7 8 9 10 11 12 13 14
000
FTUS46 KMTR 181720
TAFOAK
TAF
KOAK 181720Z 1818/1924 03006KT P6SM SKC
     FM182000 31007KT P6SM SCT250
     FM190300 31004KT P6SM FEW250
     FM191000 VRB02KT P6SM SKC
     FM192000 28006KT P6SM SCT250=

USA.gov is the U.S. government's official web portal to all federal, state and local government web resources and services.